22:03
Airports
History
Links
Donate
Help keep this website running!
PayPal
Bitcoin
This page is community maintained. The information is intended for PC simulator navigation or reference.
Always use approved charts for navigation.
EDTU
Saulgau
Saulgau (EDTU)
Bad Saulgau, Baden-Wurttemberg, Germany (88348)
(U)
Lat/Lng:48° 1' 45.95" N / 9° 30' 25.99" E
48.02943 / 9.507219
Elevation:1907'ft / 581mMSL
ID / ICAO:EDTU
Runways:1
Longest:13-31
Asphalt 451m / 1,478ft
Nearby Weather21:20 GMT 2017-10-17
Nearby weather at ETHL, LAUPHEIM located 22.9 nautical miles from EDTU
Altimeter: 30.12
Visibility: 6.2 statute miles
Wind: 3 knots (from 200°)
Temp: 11°c / 52°f
Humidity: 87.5%

METAR: ETHL 172120Z 20003KT 9999 BKN280 11/09 Q1020 BLU+

(Powered by phpweather)
Nearby VORs <50NM
Nearby NDBs
Runway 13 / 31
Dimensions:450.6 x 14.9m 1478' x 49'ft
Surface:Asphalt
Runway 13 [A]Runway 31 [B]
Heading:126°TH 306°TH
Lat:
Lng:
48° 1' 50.23"N
9° 30' 17.17"E
48° 1' 41.67"N
9° 30' 34.81"E
User Notes and Comments
48° 1' 45.95" N / 9° 30' 25.99" E
Distance To
Airport ID:
Nearby Airports
(U) MENGEN HOHENTENGEN 6.4 NM
EDTM WNW 285°
(U) BIBERACH AN DER RISS 13.0 NM
EDMB ENE 64°
(C) LAUPHEIM 22.9 NM
ETHL ( WX ) NE 54°
(C) Friedrichshafen 24.7 NM
EDNY ( WX ) S 179°
(C) LEUTKIRCH UNTERZEIL 26.3 NM
EDNL ESE 116°
(C) Tannheim 27.4 NM
EDMT E 92°
(U) NEUHAUSEN OB ECK 28.1 NM
EDSN W 262°
VFR Chart
Flight Planning at SkyVector.com